Finnhawk — OJNL — position and weather

sailwx.info

Track history (hours):
 
Tides and Currents Weather Stations Pressure Air Temp Water Temp Dewpoint Dewpoint Depression Visibility Wind Speed Wind Dir Waves Ship Positions

Finnhawk

Last reported at 2015-Apr-27 04:23 UTC. Time now 2015-Apr-27 20:42 UTC.
Position N 57°46' E 010°16'.

Length 163 m; draft 6.9 m.

Type: Ship. MMSI: 230007000.

Date/timePositionNaut miles runAvg speedWind from/ knotsBaromVisibWave heightAir tempDewpointWater temp
2015-Apr-27 04:23N 57°46' E 010°16'1416.3
2015-Apr-27 03:33N 57°49' E 010°41'1717.1
2015-Apr-27 02:33N 57°39' E 011°07'1818.0
2015-Apr-27 01:33N 57°25' E 011°29'1818.3
2015-Apr-27 00:33N 57°08' E 011°40'1818.2
2015-Apr-26 23:33N 56°51' E 011°51'2218.0
2015-Apr-26 22:21N 56°30' E 012°04'1418.0
2015-Apr-26 21:33N 56°18' E 012°17'1818.1
2015-Apr-26 20:33N 56°04' E 012°38'1616.2
2015-Apr-26 19:33N 55°48' E 012°44'1212.4
2015-Apr-26 18:34N 55°36' E 012°42'1212.1
2015-Apr-26 17:34N 55°24' E 012°41'1313.1
2015-Apr-26 16:33N 55°15' E 012°58'1918.4
2015-Apr-26 15:33N 55°14' E 013°31'1918.8
2015-Apr-26 14:34N 55°13' E 014°03'1716.8
2015-Apr-26 13:33N 55°22' E 014°28'1818.0
2015-Apr-26 12:34N 55°34' E 014°53'1918.2
2015-Apr-26 11:32N 55°43' E 015°22'2018.3
2015-Apr-26 10:26N 55°51' E 015°54'32017.9
2015-Apr-25 16:31N 59°35' E 023°02'1818.9
2015-Apr-25 15:34N 59°41' E 023°37'1919.0
2015-Apr-25 14:33N 59°47' E 024°12'3416.6
2015-Apr-25 12:31N 60°05' E 025°10'8 8.2
2015-Apr-25 11:33N 60°13' E 025°12'0 0.0
2015-Apr-25 10:31N 60°13' E 025°12'0 0.0
2015-Apr-25 09:25N 60°13' E 025°12'0 0.0
2015-Apr-25 08:31N 60°13' E 025°12'0 0.0
2015-Apr-25 07:31N 60°13' E 025°12'0 0.0
2015-Apr-25 06:31N 60°13' E 025°12'0 0.0
2015-Apr-25 05:22N 60°13' E 025°12'0 0.0
2015-Apr-25 04:28N 60°13' E 025°12'0 0.0
2015-Apr-25 03:31N 60°13' E 025°12'0 0.0
2015-Apr-25 02:31N 60°13' E 025°12'0 0.0
2015-Apr-25 01:31N 60°13' E 025°12'0 0.0
2015-Apr-25 00:31N 60°13' E 025°12'0 0.0
2015-Apr-24 23:33N 60°13' E 025°12'28 8.6
2015-Apr-24 20:17N 60°04' E 026°05'1014.0
2015-Apr-24 19:33N 60°10' E 026°22'1414.0
2015-Apr-24 18:33N 60°21' E 026°39'1212.2
2015-Apr-24 17:33N 60°29' E 026°57'0 0.2
2015-Apr-24 16:31N 60°29' E 026°57'0 0.0
2015-Apr-24 15:31N 60°29' E 026°57'0 0.0
2015-Apr-24 14:31N 60°29' E 026°57'0 0.0
2015-Apr-24 13:31N 60°29' E 026°57'0 0.0
2015-Apr-24 12:31N 60°29' E 026°57'0 0.0
2015-Apr-24 11:31N 60°29' E 026°57'0 0.0
2015-Apr-24 10:31N 60°29' E 026°57'0 0.0
2015-Apr-24 09:31N 60°29' E 026°57'0 0.0
2015-Apr-24 08:31N 60°29' E 026°57'0 0.0
2015-Apr-24 07:31N 60°29' E 026°57'0 0.0
2015-Apr-24 06:31N 60°29' E 026°57'0 0.0
2015-Apr-24 05:31N 60°29' E 026°57'0 0.0
2015-Apr-24 04:31N 60°29' E 026°57'0 0.0
2015-Apr-24 03:31N 60°29' E 026°57'1 0.8
2015-Apr-24 02:33N 60°28' E 026°58'1414.4
2015-Apr-24 01:33N 60°19' E 026°36'1614.2
2015-Apr-24 00:25N 60°04' E 026°25'9117.2
2015-Apr-23 19:07N 60°02' E 029°28'712.9
2015-Apr-23 18:33N 59°59' E 029°42'1111.4
2015-Apr-23 17:33N 59°55' E 030°03'5 5.2
2015-Apr-23 16:31N 59°53' E 030°13'0 0.0
2015-Apr-23 15:28N 59°53' E 030°13'0 0.0
2015-Apr-23 14:31N 59°53' E 030°13'0 0.0
2015-Apr-23 13:31N 59°53' E 030°13'0 0.0
2015-Apr-23 12:31N 59°53' E 030°13'0 0.0
2015-Apr-23 11:31N 59°53' E 030°13'0 0.0
2015-Apr-23 10:31N 59°53' E 030°13'0 0.0
2015-Apr-23 09:31N 59°53' E 030°13'0 0.0
2015-Apr-23 08:31N 59°53' E 030°13'0 0.0
2015-Apr-23 07:31N 59°53' E 030°13'0 0.0
2015-Apr-23 06:31N 59°53' E 030°13'0 0.0
2015-Apr-23 05:31N 59°53' E 030°13'1 1.3
2015-Apr-23 04:33N 59°53' E 030°11'8 8.0
2015-Apr-23 03:33N 59°56' E 029°56'10 9.8
2015-Apr-23 02:33N 60°00' E 029°38'5914.0
2015-Apr-22 22:20N 60°09' E 027°41'1315.1
2015-Apr-22 21:27N 60°02' E 027°18'1314.4
2015-Apr-22 20:33N 59°58' E 026°53'1514.5
2015-Apr-22 19:33N 59°58' E 026°24'3712.4
2015-Apr-22 16:33N 60°08' E 025°12'5 4.6
2015-Apr-22 15:33N 60°13' E 025°12'0 0.0
2015-Apr-22 14:32N 60°13' E 025°12'0 0.0
2015-Apr-22 13:32N 60°13' E 025°12'0 0.0
2015-Apr-22 12:32N 60°13' E 025°12'0 0.0
2015-Apr-22 11:32N 60°13' E 025°12'8 7.6
2015-Apr-22 10:32N 60°05' E 025°11'1616.2
2015-Apr-22 09:32N 59°51' E 024°56'1916.3
2015-Apr-22 08:24N 59°44' E 024°22'1417.1
2015-Apr-22 07:33N 59°39' E 023°55'1817.2
2015-Apr-22 06:32N 59°33' E 023°22'22016.9
2015-Apr-21 17:33N 57°22' E 017°44'1717.0
2015-Apr-21 16:33N 57°07' E 017°33'13016.2
2015-Apr-21 08:33N 55°30' E 014°57'1616.5
2015-Apr-21 07:33N 55°20' E 014°34'1615.8
2015-Apr-21 06:33N 55°09' E 014°14'1616.2
2015-Apr-21 05:33N 55°11' E 013°46'1716.7
2015-Apr-21 04:34N 55°12' E 013°17'1716.7
2015-Apr-21 03:33N 55°16' E 012°48'1413.6
2015-Apr-21 02:33N 55°29' E 012°41'1312.7
2015-Apr-21 01:33N 55°41' E 012°41'1615.5
2015-Apr-21 00:33N 55°57' E 012°39'1111.4
2015-Apr-20 23:34N 56°07' E 012°31'1616.4
2015-Apr-20 22:33N 56°20' E 012°13'1716.6
2015-Apr-20 21:33N 56°34' E 011°57'1716.7
2015-Apr-20 20:33N 56°50' E 011°48'1716.6
2015-Apr-20 19:33N 57°05' E 011°36'1616.4
2015-Apr-20 18:33N 57°21' E 011°27'1616.2
2015-Apr-20 17:33N 57°34' E 011°09'1716.7
2015-Apr-20 16:33N 57°46' E 010°47'1717.0
2015-Apr-20 15:33N 57°44' E 010°16'15417.2
2015-Apr-20 06:33N 55°53' E 006°59'1817.9
2015-Apr-20 05:33N 55°38' E 006°41'8018.6
2015-Apr-20 01:14N 54°31' E 005°26'1318.5
2015-Apr-20 00:33N 54°20' E 005°14'1818.3
2015-Apr-19 23:33N 54°04' E 004°59'1918.6
2015-Apr-19 22:33N 53°46' E 004°55'1818.3
2015-Apr-19 21:33N 53°28' E 004°46'2218.1
2015-Apr-19 20:20N 53°08' E 004°31'2118.3
2015-Apr-19 19:12N 52°50' E 004°13'1219.1
2015-Apr-19 18:33N 52°41' E 003°60'2019.1
2015-Apr-19 17:31N 52°26' E 003°39'2320.0
2015-Apr-19 16:22N 52°05' E 003°24'1720.4
2015-Apr-19 15:33N 51°48' E 003°18'1616.4
2015-Apr-19 14:34N 51°33' E 003°25'1313.4
2015-Apr-19 13:34N 51°25' E 003°43'10 9.7
2015-Apr-19 12:34N 51°26' E 003°58'1111.0
2015-Apr-19 11:34N 51°21' E 004°14'2 1.9
2015-Apr-19 10:33N 51°20' E 004°17'0 0.0
2015-Apr-19 09:33N 51°20' E 004°17'0 0.0
2015-Apr-19 08:33N 51°20' E 004°17'0 0.0
2015-Apr-19 07:33N 51°20' E 004°17'0 0.0
2015-Apr-19 06:33N 51°20' E 004°17'0 0.0
2015-Apr-19 05:33N 51°20' E 004°17'0 0.0
2015-Apr-19 04:33N 51°20' E 004°17'1 0.9
2015-Apr-19 03:33N 51°21' E 004°16'5 4.7
2015-Apr-19 02:34N 51°22' E 004°09'7 7.4
2015-Apr-19 01:34N 51°23' E 003°57'1312.8
2015-Apr-19 00:34N 51°26' E 003°37'1818.0
2015-Apr-18 23:32N 51°24' E 003°08'1616.7
2015-Apr-18 22:33N 51°22' E 002°42'1515.0
2015-Apr-18 21:33N 51°19' E 002°18'1717.4
2015-Apr-18 20:34N 51°27' E 001°53'1413.7
2015-Apr-18 19:33N 51°25' E 001°32'1110.9
2015-Apr-18 18:34N 51°29' E 001°16'1514.6
2015-Apr-18 17:34N 51°29' E 000°52'1616.2
2015-Apr-18 16:33N 51°27' E 000°26'4 3.5
2015-Apr-18 15:34N 51°27' E 000°21'0 0.4
2015-Apr-18 14:25N 51°27' E 000°21'0 0.0
2015-Apr-18 13:34N 51°27' E 000°21'0 0.0
2015-Apr-18 12:34N 51°27' E 000°21'0 0.0
2015-Apr-18 11:32N 51°27' E 000°21'0 0.0
2015-Apr-18 10:28N 51°27' E 000°21'0 0.0
2015-Apr-18 09:34N 51°27' E 000°21'0 0.0
2015-Apr-18 08:34N 51°27' E 000°21'0 0.0
2015-Apr-18 07:34N 51°27' E 000°21'0 0.0
2015-Apr-18 06:33N 51°27' E 000°21'0 0.0
2015-Apr-18 05:34N 51°27' E 000°21'0 0.0
2015-Apr-18 04:34N 51°27' E 000°21'0 0.5
2015-Apr-18 03:33N 51°27' E 000°21'0 0.5
2015-Apr-18 02:34N 51°27' E 000°21'8 7.6
2015-Apr-18 01:34N 51°30' E 000°32'1212.2
2015-Apr-18 00:34N 51°29' E 000°52'1313.2
2015-Apr-17 23:33N 51°29' E 001°13'1111.1
2015-Apr-17 22:34N 51°26' E 001°30'1514.6
2015-Apr-17 21:33N 51°37' E 001°44'1514.9
2015-Apr-17 20:33N 51°52' E 001°44'1515.1
2015-Apr-17 19:33N 52°07' E 001°49'1615.6
2015-Apr-17 18:34N 52°22' E 001°55'1716.4
2015-Apr-17 17:32N 52°38' E 002°02'1414.8
2015-Apr-17 16:33N 52°50' E 001°48'1616.3
2015-Apr-17 15:33N 52°58' E 001°24'4016.4
2015-Apr-17 13:06N 53°24' E 000°33'917.5
2015-Apr-17 12:33N 53°32' E 000°24'1413.7
2015-Apr-17 11:34N 53°36' E 000°02'8 8.0
2015-Apr-17 10:34N 53°38' W 000°11'0 0.4
2015-Apr-17 09:33N 53°38' W 000°12'0 0.0
2015-Apr-17 08:33N 53°38' W 000°12'0 0.0
2015-Apr-17 07:33N 53°38' W 000°12'0 0.0
2015-Apr-17 06:33N 53°38' W 000°12'0 0.0
2015-Apr-17 05:33N 53°38' W 000°12'0 0.0
2015-Apr-17 04:30N 53°38' W 000°12'  
Track history (hours):
 
Tides and Currents Weather Stations Pressure Air Temp Water Temp Dewpoint Dewpoint Depression Visibility Wind Speed Wind Dir Waves Ship Positions

Finnhawk

Last reported at 2015-Apr-27 04:23 UTC. Time now 2015-Apr-27 20:42 UTC.
Position N 57°46' E 010°16'.

Length 163 m; draft 6.9 m.

Type: Ship. MMSI: 230007000.

Date/timePositionNaut miles runAvg speedWind from/ knotsBaromVisibWave heightAir tempDewpointWater temp
2015-Apr-27 04:23N 57°46' E 010°16'1416.3
2015-Apr-27 03:33N 57°49' E 010°41'1717.1
2015-Apr-27 02:33N 57°39' E 011°07'1818.0
2015-Apr-27 01:33N 57°25' E 011°29'1818.3
2015-Apr-27 00:33N 57°08' E 011°40'1818.2
2015-Apr-26 23:33N 56°51' E 011°51'2218.0
2015-Apr-26 22:21N 56°30' E 012°04'1418.0
2015-Apr-26 21:33N 56°18' E 012°17'1818.1
2015-Apr-26 20:33N 56°04' E 012°38'1616.2
2015-Apr-26 19:33N 55°48' E 012°44'1212.4
2015-Apr-26 18:34N 55°36' E 012°42'1212.1
2015-Apr-26 17:34N 55°24' E 012°41'1313.1
2015-Apr-26 16:33N 55°15' E 012°58'1918.4
2015-Apr-26 15:33N 55°14' E 013°31'1918.8
2015-Apr-26 14:34N 55°13' E 014°03'1716.8
2015-Apr-26 13:33N 55°22' E 014°28'1818.0
2015-Apr-26 12:34N 55°34' E 014°53'1918.2
2015-Apr-26 11:32N 55°43' E 015°22'2018.3
2015-Apr-26 10:26N 55°51' E 015°54'32017.9
2015-Apr-25 16:31N 59°35' E 023°02'1818.9
2015-Apr-25 15:34N 59°41' E 023°37'1919.0
2015-Apr-25 14:33N 59°47' E 024°12'3416.6
2015-Apr-25 12:31N 60°05' E 025°10'8 8.2
2015-Apr-25 11:33N 60°13' E 025°12'0 0.0
2015-Apr-25 10:31N 60°13' E 025°12'0 0.0
2015-Apr-25 09:25N 60°13' E 025°12'0 0.0
2015-Apr-25 08:31N 60°13' E 025°12'0 0.0
2015-Apr-25 07:31N 60°13' E 025°12'0 0.0
2015-Apr-25 06:31N 60°13' E 025°12'0 0.0
2015-Apr-25 05:22N 60°13' E 025°12'0 0.0
2015-Apr-25 04:28N 60°13' E 025°12'0 0.0
2015-Apr-25 03:31N 60°13' E 025°12'0 0.0
2015-Apr-25 02:31N 60°13' E 025°12'0 0.0
2015-Apr-25 01:31N 60°13' E 025°12'0 0.0
2015-Apr-25 00:31N 60°13' E 025°12'0 0.0
2015-Apr-24 23:33N 60°13' E 025°12'28 8.6
2015-Apr-24 20:17N 60°04' E 026°05'1014.0
2015-Apr-24 19:33N 60°10' E 026°22'1414.0
2015-Apr-24 18:33N 60°21' E 026°39'1212.2
2015-Apr-24 17:33N 60°29' E 026°57'0 0.2
2015-Apr-24 16:31N 60°29' E 026°57'0 0.0
2015-Apr-24 15:31N 60°29' E 026°57'0 0.0
2015-Apr-24 14:31N 60°29' E 026°57'0 0.0
2015-Apr-24 13:31N 60°29' E 026°57'0 0.0
2015-Apr-24 12:31N 60°29' E 026°57'0 0.0
2015-Apr-24 11:31N 60°29' E 026°57'0 0.0
2015-Apr-24 10:31N 60°29' E 026°57'0 0.0
2015-Apr-24 09:31N 60°29' E 026°57'0 0.0
2015-Apr-24 08:31N 60°29' E 026°57'0 0.0
2015-Apr-24 07:31N 60°29' E 026°57'0 0.0
2015-Apr-24 06:31N 60°29' E 026°57'0 0.0
2015-Apr-24 05:31N 60°29' E 026°57'0 0.0
2015-Apr-24 04:31N 60°29' E 026°57'0 0.0
2015-Apr-24 03:31N 60°29' E 026°57'1 0.8
2015-Apr-24 02:33N 60°28' E 026°58'1414.4
2015-Apr-24 01:33N 60°19' E 026°36'1614.2
2015-Apr-24 00:25N 60°04' E 026°25'9117.2
2015-Apr-23 19:07N 60°02' E 029°28'712.9
2015-Apr-23 18:33N 59°59' E 029°42'1111.4
2015-Apr-23 17:33N 59°55' E 030°03'5 5.2
2015-Apr-23 16:31N 59°53' E 030°13'0 0.0
2015-Apr-23 15:28N 59°53' E 030°13'0 0.0
2015-Apr-23 14:31N 59°53' E 030°13'0 0.0
2015-Apr-23 13:31N 59°53' E 030°13'0 0.0
2015-Apr-23 12:31N 59°53' E 030°13'0 0.0
2015-Apr-23 11:31N 59°53' E 030°13'0 0.0
2015-Apr-23 10:31N 59°53' E 030°13'0 0.0
2015-Apr-23 09:31N 59°53' E 030°13'0 0.0
2015-Apr-23 08:31N 59°53' E 030°13'0 0.0
2015-Apr-23 07:31N 59°53' E 030°13'0 0.0
2015-Apr-23 06:31N 59°53' E 030°13'0 0.0
2015-Apr-23 05:31N 59°53' E 030°13'1 1.3
2015-Apr-23 04:33N 59°53' E 030°11'8 8.0
2015-Apr-23 03:33N 59°56' E 029°56'10 9.8
2015-Apr-23 02:33N 60°00' E 029°38'5914.0
2015-Apr-22 22:20N 60°09' E 027°41'1315.1
2015-Apr-22 21:27N 60°02' E 027°18'1314.4
2015-Apr-22 20:33N 59°58' E 026°53'1514.5
2015-Apr-22 19:33N 59°58' E 026°24'3712.4
2015-Apr-22 16:33N 60°08' E 025°12'5 4.6
2015-Apr-22 15:33N 60°13' E 025°12'0 0.0
2015-Apr-22 14:32N 60°13' E 025°12'0 0.0
2015-Apr-22 13:32N 60°13' E 025°12'0 0.0
2015-Apr-22 12:32N 60°13' E 025°12'0 0.0
2015-Apr-22 11:32N 60°13' E 025°12'8 7.6
2015-Apr-22 10:32N 60°05' E 025°11'1616.2
2015-Apr-22 09:32N 59°51' E 024°56'1916.3
2015-Apr-22 08:24N 59°44' E 024°22'1417.1
2015-Apr-22 07:33N 59°39' E 023°55'1817.2
2015-Apr-22 06:32N 59°33' E 023°22'22016.9
2015-Apr-21 17:33N 57°22' E 017°44'1717.0
2015-Apr-21 16:33N 57°07' E 017°33'13016.2
2015-Apr-21 08:33N 55°30' E 014°57'1616.5
2015-Apr-21 07:33N 55°20' E 014°34'1615.8
2015-Apr-21 06:33N 55°09' E 014°14'1616.2
2015-Apr-21 05:33N 55°11' E 013°46'1716.7
2015-Apr-21 04:34N 55°12' E 013°17'1716.7
2015-Apr-21 03:33N 55°16' E 012°48'1413.6
2015-Apr-21 02:33N 55°29' E 012°41'1312.7
2015-Apr-21 01:33N 55°41' E 012°41'1615.5
2015-Apr-21 00:33N 55°57' E 012°39'1111.4
2015-Apr-20 23:34N 56°07' E 012°31'1616.4
2015-Apr-20 22:33N 56°20' E 012°13'1716.6
2015-Apr-20 21:33N 56°34' E 011°57'1716.7
2015-Apr-20 20:33N 56°50' E 011°48'1716.6
2015-Apr-20 19:33N 57°05' E 011°36'1616.4
2015-Apr-20 18:33N 57°21' E 011°27'1616.2
2015-Apr-20 17:33N 57°34' E 011°09'1716.7
2015-Apr-20 16:33N 57°46' E 010°47'1717.0
2015-Apr-20 15:33N 57°44' E 010°16'15417.2
2015-Apr-20 06:33N 55°53' E 006°59'1817.9
2015-Apr-20 05:33N 55°38' E 006°41'8018.6
2015-Apr-20 01:14N 54°31' E 005°26'1318.5
2015-Apr-20 00:33N 54°20' E 005°14'1818.3
2015-Apr-19 23:33N 54°04' E 004°59'1918.6
2015-Apr-19 22:33N 53°46' E 004°55'1818.3
2015-Apr-19 21:33N 53°28' E 004°46'2218.1
2015-Apr-19 20:20N 53°08' E 004°31'2118.3
2015-Apr-19 19:12N 52°50' E 004°13'1219.1
2015-Apr-19 18:33N 52°41' E 003°60'2019.1
2015-Apr-19 17:31N 52°26' E 003°39'2320.0
2015-Apr-19 16:22N 52°05' E 003°24'1720.4
2015-Apr-19 15:33N 51°48' E 003°18'1616.4
2015-Apr-19 14:34N 51°33' E 003°25'1313.4
2015-Apr-19 13:34N 51°25' E 003°43'10 9.7
2015-Apr-19 12:34N 51°26' E 003°58'1111.0
2015-Apr-19 11:34N 51°21' E 004°14'2 1.9
2015-Apr-19 10:33N 51°20' E 004°17'0 0.0
2015-Apr-19 09:33N 51°20' E 004°17'0 0.0
2015-Apr-19 08:33N 51°20' E 004°17'0 0.0
2015-Apr-19 07:33N 51°20' E 004°17'0 0.0
2015-Apr-19 06:33N 51°20' E 004°17'0 0.0
2015-Apr-19 05:33N 51°20' E 004°17'0 0.0
2015-Apr-19 04:33N 51°20' E 004°17'1 0.9
2015-Apr-19 03:33N 51°21' E 004°16'5 4.7
2015-Apr-19 02:34N 51°22' E 004°09'7 7.4
2015-Apr-19 01:34N 51°23' E 003°57'1312.8
2015-Apr-19 00:34N 51°26' E 003°37'1818.0
2015-Apr-18 23:32N 51°24' E 003°08'1616.7
2015-Apr-18 22:33N 51°22' E 002°42'1515.0
2015-Apr-18 21:33N 51°19' E 002°18'1717.4
2015-Apr-18 20:34N 51°27' E 001°53'1413.7
2015-Apr-18 19:33N 51°25' E 001°32'1110.9
2015-Apr-18 18:34N 51°29' E 001°16'1514.6
2015-Apr-18 17:34N 51°29' E 000°52'1616.2
2015-Apr-18 16:33N 51°27' E 000°26'4 3.5
2015-Apr-18 15:34N 51°27' E 000°21'0 0.4
2015-Apr-18 14:25N 51°27' E 000°21'0 0.0
2015-Apr-18 13:34N 51°27' E 000°21'0 0.0
2015-Apr-18 12:34N 51°27' E 000°21'0 0.0
2015-Apr-18 11:32N 51°27' E 000°21'0 0.0
2015-Apr-18 10:28N 51°27' E 000°21'0 0.0
2015-Apr-18 09:34N 51°27' E 000°21'0 0.0
2015-Apr-18 08:34N 51°27' E 000°21'0 0.0
2015-Apr-18 07:34N 51°27' E 000°21'0 0.0
2015-Apr-18 06:33N 51°27' E 000°21'0 0.0
2015-Apr-18 05:34N 51°27' E 000°21'0 0.0
2015-Apr-18 04:34N 51°27' E 000°21'0 0.5
2015-Apr-18 03:33N 51°27' E 000°21'0 0.5
2015-Apr-18 02:34N 51°27' E 000°21'8 7.6
2015-Apr-18 01:34N 51°30' E 000°32'1212.2
2015-Apr-18 00:34N 51°29' E 000°52'1313.2
2015-Apr-17 23:33N 51°29' E 001°13'1111.1
2015-Apr-17 22:34N 51°26' E 001°30'1514.6
2015-Apr-17 21:33N 51°37' E 001°44'1514.9
2015-Apr-17 20:33N 51°52' E 001°44'1515.1
2015-Apr-17 19:33N 52°07' E 001°49'1615.6
2015-Apr-17 18:34N 52°22' E 001°55'1716.4
2015-Apr-17 17:32N 52°38' E 002°02'1414.8
2015-Apr-17 16:33N 52°50' E 001°48'1616.3
2015-Apr-17 15:33N 52°58' E 001°24'4016.4
2015-Apr-17 13:06N 53°24' E 000°33'917.5
2015-Apr-17 12:33N 53°32' E 000°24'1413.7
2015-Apr-17 11:34N 53°36' E 000°02'8 8.0
2015-Apr-17 10:34N 53°38' W 000°11'0 0.4
2015-Apr-17 09:33N 53°38' W 000°12'0 0.0
2015-Apr-17 08:33N 53°38' W 000°12'0 0.0
2015-Apr-17 07:33N 53°38' W 000°12'0 0.0
2015-Apr-17 06:33N 53°38' W 000°12'0 0.0
2015-Apr-17 05:33N 53°38' W 000°12'0 0.0
2015-Apr-17 04:30N 53°38' W 000°12'  

Dump ship's entire track history